createdAt,value
2018-03-04T00:00:59.963Z,-0.74
2018-03-04T00:02:05.422Z,-0.72
2018-03-04T00:03:11.096Z,-0.70
2018-03-04T00:04:16.506Z,-0.64
2018-03-04T00:05:21.865Z,-0.68
2018-03-04T00:06:27.232Z,-0.72
2018-03-04T00:07:32.847Z,-0.72
2018-03-04T00:08:38.161Z,-0.76
2018-03-04T00:09:43.812Z,-0.71
2018-03-04T00:10:49.198Z,-0.72
2018-03-04T00:11:54.543Z,-0.75
2018-03-04T00:12:59.931Z,-0.75
2018-03-04T00:14:05.224Z,-0.78
2018-03-04T00:15:10.614Z,-0.74
2018-03-04T00:16:16.209Z,-0.73
2018-03-04T00:17:21.762Z,-0.69
2018-03-04T00:18:27.106Z,-0.65
2018-03-04T00:19:32.552Z,-0.69
2018-03-04T00:20:37.911Z,-0.68
2018-03-04T00:21:43.252Z,-0.70
2018-03-04T00:22:49.050Z,-0.73
2018-03-04T00:23:54.959Z,-0.69
2018-03-04T00:25:00.502Z,-0.73
2018-03-04T00:26:05.993Z,-0.67
2018-03-04T00:27:11.421Z,-0.66
2018-03-04T00:28:16.965Z,-0.67
2018-03-04T00:29:22.804Z,-0.64
2018-03-04T00:30:28.232Z,-0.70
2018-03-04T00:31:33.664Z,-0.74
2018-03-04T00:32:39.141Z,-0.72
2018-03-04T00:33:44.649Z,-0.71
2018-03-04T00:34:50.247Z,-0.69
2018-03-04T00:35:56.967Z,-0.67
2018-03-04T00:37:02.382Z,-0.67
2018-03-04T00:38:08.302Z,-0.66
2018-03-04T00:39:13.731Z,-0.69
2018-03-04T00:40:19.150Z,-0.65
2018-03-04T00:41:24.591Z,-0.62
2018-03-04T00:42:30.609Z,-0.66
2018-03-04T00:43:36.182Z,-0.61
2018-03-04T00:44:41.838Z,-0.58
2018-03-04T00:45:47.312Z,-0.58
2018-03-04T00:46:52.955Z,-0.58
2018-03-04T00:47:58.425Z,-0.54
2018-03-04T00:49:04.101Z,-0.54
2018-03-04T00:50:09.765Z,-0.56
2018-03-04T00:51:15.429Z,-0.59
2018-03-04T00:52:20.838Z,-0.59
2018-03-04T00:53:26.417Z,-0.54
2018-03-04T00:54:31.822Z,-0.55
2018-03-04T00:55:37.639Z,-0.54
2018-03-04T00:56:43.175Z,-0.53
2018-03-04T00:57:48.831Z,-0.54
2018-03-04T00:58:54.367Z,-0.62
2018-03-04T00:59:59.739Z,-0.65
2018-03-04T01:01:05.918Z,-0.64
2018-03-04T01:02:11.843Z,-0.63
2018-03-04T01:03:17.328Z,-0.67
2018-03-04T01:04:22.855Z,-0.66
2018-03-04T01:05:28.433Z,-0.58
2018-03-04T01:06:34.053Z,-0.64
2018-03-04T01:07:39.635Z,-0.72
2018-03-04T01:08:45.386Z,-0.73
2018-03-04T01:09:51.030Z,-0.70
2018-03-04T01:10:56.695Z,-0.69
2018-03-04T01:12:02.356Z,-0.73
2018-03-04T01:13:08.107Z,-0.74
2018-03-04T01:14:13.909Z,-0.73
2018-03-04T01:15:19.855Z,-0.71
2018-03-04T01:16:25.619Z,-0.72
2018-03-04T01:17:31.186Z,-0.76
2018-03-04T01:18:36.863Z,-0.77
2018-03-04T01:19:42.568Z,-0.77
2018-03-04T01:20:48.215Z,-0.78
2018-03-04T01:21:54.128Z,-0.75
2018-03-04T01:22:59.910Z,-0.78
2018-03-04T01:24:05.557Z,-0.76
2018-03-04T01:25:11.129Z,-0.80
2018-03-04T01:26:16.683Z,-0.78
2018-03-04T01:27:22.156Z,-0.78
2018-03-04T01:28:28.427Z,-0.81
2018-03-04T01:29:34.079Z,-0.86
2018-03-04T01:30:39.794Z,-0.82
2018-03-04T01:31:45.603Z,-0.87
2018-03-04T01:32:51.315Z,-0.88
2018-03-04T01:33:56.857Z,-0.83
2018-03-04T01:35:02.901Z,-0.83
2018-03-04T01:36:08.754Z,-0.92
2018-03-04T01:37:14.488Z,-0.94
2018-03-04T01:38:20.108Z,-0.89
2018-03-04T01:39:25.779Z,-0.93
2018-03-04T01:40:31.512Z,-0.96
2018-03-04T01:41:37.462Z,-1.00
2018-03-04T01:42:43.301Z,-0.99
2018-03-04T01:43:49.032Z,-0.99
2018-03-04T01:44:54.766Z,-0.97
2018-03-04T01:46:00.482Z,-1.00
2018-03-04T01:47:06.315Z,-1.02
2018-03-04T01:48:12.255Z,-1.10
2018-03-04T01:49:18.045Z,-1.10
2018-03-04T01:50:23.717Z,-1.08
2018-03-04T01:51:33.242Z,-1.06
2018-03-04T01:52:38.917Z,-1.04
2018-03-04T01:53:44.560Z,-1.05
2018-03-04T01:54:50.636Z,-1.06
2018-03-04T01:55:56.145Z,-1.13
2018-03-04T01:57:02.129Z,-1.10
2018-03-04T01:58:07.730Z,-1.07
2018-03-04T01:59:13.189Z,-1.13
2018-03-04T02:00:18.954Z,-1.09
2018-03-04T02:01:25.462Z,-1.05
2018-03-04T02:02:31.439Z,-1.07
2018-03-04T02:03:37.247Z,-1.10
2018-03-04T02:04:42.994Z,-1.08
2018-03-04T02:05:48.710Z,-1.06
2018-03-04T02:06:54.590Z,-1.07
2018-03-04T02:08:00.625Z,-1.04
2018-03-04T02:09:06.522Z,-1.02
2018-03-04T02:10:12.441Z,-1.07
2018-03-04T02:11:19.010Z,-1.10
2018-03-04T02:12:25.150Z,-1.07
2018-03-04T02:13:30.922Z,-1.08
2018-03-04T02:14:37.005Z,-1.05
2018-03-04T02:15:42.878Z,-1.07
2018-03-04T02:16:48.583Z,-1.07
2018-03-04T02:17:54.455Z,-1.07
2018-03-04T02:19:00.068Z,-1.09
2018-03-04T02:20:05.767Z,-1.11
2018-03-04T02:21:12.086Z,-1.08
2018-03-04T02:22:18.101Z,-1.07
2018-03-04T02:23:24.081Z,-1.06
2018-03-04T02:24:29.831Z,-1.04
2018-03-04T02:25:35.533Z,-1.04
2018-03-04T02:26:41.507Z,-1.04
2018-03-04T02:27:47.395Z,-1.07
2018-03-04T02:28:53.092Z,-1.04
2018-03-04T02:29:58.533Z,-1.08
2018-03-04T02:31:04.646Z,-1.07
2018-03-04T02:32:10.295Z,-1.05
2018-03-04T02:33:16.460Z,-1.02
2018-03-04T02:34:22.176Z,-1.02
2018-03-04T02:35:27.798Z,-1.02
2018-03-04T02:36:33.885Z,-0.98
2018-03-04T02:37:39.741Z,-1.00
2018-03-04T02:38:45.667Z,-1.01
2018-03-04T02:39:51.629Z,-0.96
2018-03-04T02:40:57.568Z,-0.95
2018-03-04T02:42:03.497Z,-0.96
2018-03-04T02:43:09.157Z,-0.92
2018-03-04T02:44:15.229Z,-0.94
2018-03-04T02:45:20.561Z,-0.91
2018-03-04T02:46:26.044Z,-0.90
2018-03-04T02:47:32.256Z,-0.92
2018-03-04T02:48:38.263Z,-0.91
2018-03-04T02:49:43.945Z,-0.88
2018-03-04T02:50:49.764Z,-0.90
2018-03-04T02:51:55.212Z,-0.91
2018-03-04T02:53:00.919Z,-0.88
2018-03-04T02:54:07.147Z,-0.91
2018-03-04T02:55:12.936Z,-0.89
2018-03-04T02:56:18.479Z,-0.87
2018-03-04T02:57:24.222Z,-0.83
2018-03-04T02:58:30.109Z,-0.82
2018-03-04T02:59:35.716Z,-0.88
2018-03-04T03:00:41.624Z,-0.83
2018-03-04T03:01:46.843Z,-0.87
2018-03-04T03:02:52.669Z,-0.86
2018-03-04T03:03:58.580Z,-0.79
2018-03-04T03:05:04.233Z,-0.78
2018-03-04T03:06:10.164Z,-0.82
2018-03-04T03:07:16.096Z,-0.85
2018-03-04T03:08:21.709Z,-0.78
2018-03-04T03:09:26.953Z,-0.80
2018-03-04T03:10:32.896Z,-0.89
2018-03-04T03:11:38.604Z,-0.84
2018-03-04T03:12:44.414Z,-0.82
2018-03-04T03:13:50.451Z,-0.92
2018-03-04T03:14:56.055Z,-0.93
2018-03-04T03:16:01.977Z,-0.94
2018-03-04T03:17:09.376Z,-0.97
2018-03-04T03:18:14.938Z,-0.98
2018-03-04T03:19:20.315Z,-0.98
2018-03-04T03:20:25.869Z,-0.90
2018-03-04T03:21:31.357Z,-0.92
2018-03-04T03:22:36.714Z,-0.93
2018-03-04T03:23:42.902Z,-0.92
2018-03-04T03:24:48.471Z,-0.90
2018-03-04T03:25:53.871Z,-0.90
2018-03-04T03:26:59.914Z,-0.90
2018-03-04T03:28:05.450Z,-0.93
2018-03-04T03:29:11.363Z,-0.92
2018-03-04T03:30:17.507Z,-0.89
2018-03-04T03:31:23.362Z,-0.89
2018-03-04T03:32:29.380Z,-0.86
2018-03-04T03:33:34.846Z,-0.86
2018-03-04T03:34:40.430Z,-0.82
2018-03-04T03:35:46.228Z,-0.87
2018-03-04T03:36:51.987Z,-0.87
2018-03-04T03:37:58.033Z,-0.85
2018-03-04T03:39:03.737Z,-0.85
2018-03-04T03:40:09.227Z,-0.81
2018-03-04T03:41:14.971Z,-0.85
2018-03-04T03:42:20.825Z,-0.87
2018-03-04T03:43:26.244Z,-0.86
2018-03-04T03:44:31.688Z,-0.86
2018-03-04T03:45:37.500Z,-0.82
2018-03-04T03:46:42.698Z,-0.83
2018-03-04T03:47:48.259Z,-0.79
2018-03-04T03:48:54.276Z,-0.82
2018-03-04T03:49:59.674Z,-0.80
2018-03-04T03:51:04.726Z,-0.81
2018-03-04T03:52:10.249Z,-0.82
2018-03-04T03:53:15.677Z,-0.82
2018-03-04T03:54:21.045Z,-0.80
2018-03-04T03:55:26.318Z,-0.76
2018-03-04T03:56:31.793Z,-0.76
2018-03-04T03:57:36.986Z,-0.76
2018-03-04T03:58:43.092Z,-0.74
2018-03-04T03:59:48.454Z,-0.72
2018-03-04T04:00:54.782Z,-0.69
2018-03-04T04:02:00.132Z,-0.71
2018-03-04T04:03:05.323Z,-0.74
2018-03-04T04:04:11.007Z,-0.71
2018-03-04T04:05:16.915Z,-0.69
2018-03-04T04:06:22.349Z,-0.66
2018-03-04T04:07:27.481Z,-0.66
2018-03-04T04:08:32.579Z,-0.67
2018-03-04T04:09:37.750Z,-0.64
2018-03-04T04:10:42.935Z,-0.62
2018-03-04T04:11:48.465Z,-0.59
2018-03-04T04:12:53.666Z,-0.60
2018-03-04T04:13:58.778Z,-0.58
2018-03-04T04:15:03.964Z,-0.55
2018-03-04T04:16:08.892Z,-0.54
2018-03-04T04:17:13.802Z,-0.50
2018-03-04T04:18:19.333Z,-0.55
2018-03-04T04:19:24.396Z,-0.49
2018-03-04T04:20:29.373Z,-0.47
2018-03-04T04:21:34.450Z,-0.42
2018-03-04T04:22:39.588Z,-0.41
2018-03-04T04:23:44.574Z,-0.39
2018-03-04T04:24:50.074Z,-0.39
2018-03-04T04:25:55.061Z,-0.42
2018-03-04T04:27:00.818Z,-0.39
2018-03-04T04:28:05.997Z,-0.36
2018-03-04T04:29:11.317Z,-0.33
2018-03-04T04:30:16.702Z,-0.33
2018-03-04T04:31:21.971Z,-0.31
2018-03-04T04:32:27.221Z,-0.32
2018-03-04T04:33:32.293Z,-0.35
2018-03-04T04:34:38.019Z,-0.34
2018-03-04T04:35:43.458Z,-0.32
2018-03-04T04:36:49.649Z,-0.35
2018-03-04T04:37:55.752Z,-0.41
2018-03-04T04:39:01.455Z,-0.42
2018-03-04T04:40:06.843Z,-0.40
2018-03-04T04:41:12.248Z,-0.41
2018-03-04T04:42:17.740Z,-0.40
2018-03-04T04:43:23.836Z,-0.37
2018-03-04T04:44:29.035Z,-0.42
2018-03-04T04:45:34.560Z,-0.42
2018-03-04T04:46:40.759Z,-0.40
2018-03-04T04:47:45.988Z,-0.37
2018-03-04T04:48:51.034Z,-0.38
2018-03-04T04:49:56.496Z,-0.38
2018-03-04T04:51:01.802Z,-0.41
2018-03-04T04:52:07.720Z,-0.41
2018-03-04T04:53:12.559Z,-0.36
2018-03-04T04:54:17.681Z,-0.35
2018-03-04T04:55:22.823Z,-0.32
2018-03-04T04:56:29.019Z,-0.29
2018-03-04T04:57:33.936Z,-0.30
2018-03-04T04:58:38.868Z,-0.36
2018-03-04T04:59:43.966Z,-0.41
2018-03-04T05:00:48.932Z,-0.39
2018-03-04T05:01:54.081Z,-0.42
2018-03-04T05:03:00.014Z,-0.42
2018-03-04T05:04:04.816Z,-0.42
2018-03-04T05:05:09.781Z,-0.46
2018-03-04T05:06:14.608Z,-0.50
2018-03-04T05:07:19.743Z,-0.54
2018-03-04T05:08:25.070Z,-0.54
2018-03-04T05:09:30.849Z,-0.53
2018-03-04T05:10:36.318Z,-0.54
2018-03-04T05:11:41.380Z,-0.57
2018-03-04T05:12:46.715Z,-0.53
2018-03-04T05:13:51.798Z,-0.50
2018-03-04T05:14:57.263Z,-0.51
2018-03-04T05:16:02.989Z,-0.57
2018-03-04T05:17:08.296Z,-0.53
2018-03-04T05:18:13.995Z,-0.59
2018-03-04T05:19:19.452Z,-0.60
2018-03-04T05:20:24.553Z,-0.59
2018-03-04T05:21:29.880Z,-0.57
2018-03-04T05:22:35.383Z,-0.57
2018-03-04T05:23:40.645Z,-0.63
2018-03-04T05:24:45.818Z,-0.60
2018-03-04T05:25:51.009Z,-0.57
2018-03-04T05:26:57.383Z,-0.54
2018-03-04T05:28:02.376Z,-0.59
2018-03-04T05:29:07.727Z,-0.59
2018-03-04T05:30:12.733Z,-0.62
2018-03-04T05:31:18.070Z,-0.61
2018-03-04T05:32:22.992Z,-0.60
2018-03-04T05:33:28.077Z,-0.61
2018-03-04T05:34:33.449Z,-0.63
2018-03-04T05:35:39.038Z,-0.62
2018-03-04T05:36:44.219Z,-0.63
2018-03-04T05:37:49.454Z,-0.59
2018-03-04T05:38:54.763Z,-0.58
2018-03-04T05:40:00.034Z,-0.59
2018-03-04T05:41:05.371Z,-0.64
2018-03-04T05:42:10.763Z,-0.65
2018-03-04T05:43:15.755Z,-0.62
2018-03-04T05:44:20.860Z,-0.56
2018-03-04T05:45:26.054Z,-0.54
2018-03-04T05:46:31.135Z,-0.56
2018-03-04T05:47:36.137Z,-0.57
2018-03-04T05:48:41.820Z,-0.60
2018-03-04T05:49:47.023Z,-0.55
2018-03-04T05:50:52.359Z,-0.56
2018-03-04T05:51:57.795Z,-0.60
2018-03-04T05:53:03.105Z,-0.60
2018-03-04T05:54:08.417Z,-0.63
2018-03-04T05:55:14.246Z,-0.64
2018-03-04T05:56:19.381Z,-0.61
2018-03-04T05:57:25.121Z,-0.61
2018-03-04T05:58:30.657Z,-0.64
2018-03-04T05:59:35.921Z,-0.64
2018-03-04T06:00:41.243Z,-0.68
2018-03-04T06:01:46.836Z,-0.69
2018-03-04T06:02:53.395Z,-0.66
2018-03-04T06:03:58.618Z,-0.66
2018-03-04T06:05:04.857Z,-0.66
2018-03-04T06:06:11.131Z,-0.67
2018-03-04T06:07:16.628Z,-0.65
2018-03-04T06:08:22.327Z,-0.59
2018-03-04T06:09:28.223Z,-0.63
2018-03-04T06:10:34.095Z,-0.61
2018-03-04T06:11:39.861Z,-0.60
2018-03-04T06:12:45.340Z,-0.61
2018-03-04T06:13:51.079Z,-0.62
2018-03-04T06:14:57.540Z,-0.61
2018-03-04T06:16:03.605Z,-0.61
2018-03-04T06:22:35.665Z,-0.61
2018-03-04T06:23:41.348Z,-0.63
2018-03-04T06:24:46.966Z,-0.61
2018-03-04T06:25:52.638Z,-0.66
2018-03-04T06:26:58.262Z,-0.64
2018-03-04T06:28:04.160Z,-0.63
2018-03-04T06:29:10.322Z,-0.60
2018-03-04T06:30:15.980Z,-0.62
2018-03-04T06:31:21.739Z,-0.64
2018-03-04T06:32:27.559Z,-0.60
2018-03-04T06:33:33.356Z,-0.60
2018-03-04T06:34:39.005Z,-0.61
2018-03-04T06:35:45.348Z,-0.58
2018-03-04T06:36:51.082Z,-0.63
2018-03-04T06:37:56.874Z,-0.59
2018-03-04T06:39:02.754Z,-0.59
2018-03-04T06:40:09.127Z,-0.58
2018-03-04T06:41:15.054Z,-0.58
2018-03-04T06:42:21.051Z,-0.54
2018-03-04T06:43:26.769Z,-0.54
2018-03-04T06:44:32.565Z,-0.56
2018-03-04T06:45:38.412Z,-0.57
2018-03-04T06:46:44.437Z,-0.53
2018-03-04T06:47:50.194Z,-0.46
2018-03-04T06:48:56.045Z,-0.46
2018-03-04T06:50:01.980Z,-0.50
2018-03-04T06:51:08.850Z,-0.48
2018-03-04T06:52:14.439Z,-0.47
2018-03-04T06:53:20.317Z,-0.43
2018-03-04T06:54:27.062Z,-0.42
2018-03-04T06:55:33.125Z,-0.37
2018-03-04T06:56:38.801Z,-0.36
2018-03-04T06:57:44.362Z,-0.37
2018-03-04T06:58:50.039Z,-0.34
2018-03-04T06:59:55.779Z,-0.32
2018-03-04T07:01:01.868Z,-0.37
2018-03-04T07:02:08.077Z,-0.38
2018-03-04T07:03:13.863Z,-0.34
2018-03-04T07:04:20.507Z,-0.34
2018-03-04T07:05:26.260Z,-0.29
2018-03-04T07:06:32.139Z,-0.28
2018-03-04T07:07:37.776Z,-0.23
2018-03-04T07:08:43.859Z,-0.21
2018-03-04T07:09:49.641Z,-0.22
2018-03-04T07:10:55.267Z,-0.28
2018-03-04T07:12:00.971Z,-0.29
2018-03-04T07:13:06.558Z,-0.31
2018-03-04T07:14:12.547Z,-0.28
2018-03-04T07:15:18.915Z,-0.27
2018-03-04T07:16:24.985Z,-0.30
2018-03-04T07:17:30.565Z,-0.33
2018-03-04T07:18:36.210Z,-0.38
2018-03-04T07:19:42.038Z,-0.38
2018-03-04T07:20:48.458Z,-0.33
2018-03-04T07:21:53.940Z,-0.30
2018-03-04T07:22:59.760Z,-0.24
2018-03-04T07:24:05.728Z,-0.31
2018-03-04T07:25:11.400Z,-0.36
2018-03-04T07:26:17.097Z,-0.40
2018-03-04T07:27:23.125Z,-0.37
2018-03-04T07:28:28.549Z,-0.37
2018-03-04T07:29:34.289Z,-0.33
2018-03-04T07:30:39.744Z,-0.31
2018-03-04T07:31:45.175Z,-0.26
2018-03-04T07:32:50.523Z,-0.29
2018-03-04T07:33:56.359Z,-0.29
2018-03-04T07:35:01.734Z,-0.30
2018-03-04T07:36:07.555Z,-0.27
2018-03-04T07:37:13.207Z,-0.24
2018-03-04T07:38:18.755Z,-0.17
2018-03-04T07:39:24.266Z,-0.13
2018-03-04T07:40:30.141Z,-0.12
2018-03-04T07:41:35.645Z,-0.09
2018-03-04T07:42:41.326Z,-0.07
2018-03-04T07:43:46.780Z,-0.06
2018-03-04T07:44:52.249Z,-0.05
2018-03-04T07:45:57.912Z,0.00
2018-03-04T07:47:03.485Z,0.06
2018-03-04T07:48:08.839Z,0.05
2018-03-04T07:49:15.064Z,0.05
2018-03-04T07:50:20.365Z,0.23
2018-03-04T07:51:25.797Z,0.39
2018-03-04T07:52:31.329Z,0.29
2018-03-04T07:53:36.568Z,0.25
2018-03-04T07:54:42.073Z,0.22
2018-03-04T07:55:47.454Z,0.22
2018-03-04T07:56:52.779Z,0.25
2018-03-04T07:57:58.262Z,0.23
2018-03-04T07:59:03.785Z,0.17
2018-03-04T08:00:09.157Z,0.45
2018-03-04T08:01:14.559Z,0.42
2018-03-04T08:02:20.052Z,0.30
2018-03-04T08:03:25.278Z,0.32
2018-03-04T08:04:30.533Z,0.33
2018-03-04T08:05:36.095Z,0.31
2018-03-04T08:06:41.267Z,0.32
2018-03-04T08:07:46.506Z,0.35
2018-03-04T08:08:51.768Z,0.42
2018-03-04T08:09:57.079Z,0.64
2018-03-04T08:11:02.530Z,0.63
2018-03-04T08:12:08.364Z,0.53
2018-03-04T08:13:13.919Z,0.55
2018-03-04T08:14:19.175Z,0.55
2018-03-04T08:15:24.597Z,0.61
2018-03-04T08:16:30.927Z,0.66
2018-03-04T08:17:36.659Z,0.72
2018-03-04T08:18:42.502Z,0.79
2018-03-04T08:19:48.165Z,0.77
2018-03-04T08:20:53.664Z,0.77
2018-03-04T08:21:58.976Z,0.80
2018-03-04T08:23:04.328Z,0.86
2018-03-04T08:24:09.734Z,0.88
2018-03-04T08:25:20.093Z,0.92
2018-03-04T08:28:35.463Z,0.98
2018-03-04T08:29:40.751Z,1.04
2018-03-04T08:30:46.599Z,0.94
2018-03-04T08:31:51.857Z,0.88
2018-03-04T08:32:57.171Z,0.80
2018-03-04T08:34:02.622Z,0.78
2018-03-04T08:35:08.453Z,0.75
2018-03-04T08:36:14.864Z,0.73
2018-03-04T08:37:20.445Z,0.84
2018-03-04T08:38:25.634Z,0.90
2018-03-04T08:39:30.839Z,0.90
2018-03-04T08:40:35.971Z,0.91
2018-03-04T08:41:41.252Z,0.86
2018-03-04T08:42:46.377Z,0.90
2018-03-04T08:43:51.769Z,0.93
2018-03-04T08:44:57.191Z,0.89
2018-03-04T08:46:02.439Z,0.85
2018-03-04T08:47:08.395Z,0.83
2018-03-04T08:48:13.711Z,0.78
2018-03-04T08:49:19.206Z,0.81
2018-03-04T08:50:24.766Z,0.76
2018-03-04T08:51:30.064Z,0.83
2018-03-04T08:52:35.433Z,0.90
2018-03-04T08:53:41.066Z,0.86
2018-03-04T08:54:46.426Z,0.91
2018-03-04T08:55:51.840Z,0.96
2018-03-04T08:56:57.146Z,1.03
2018-03-04T08:58:02.550Z,0.91
2018-03-04T08:59:10.656Z,0.96
2018-03-04T09:00:15.854Z,0.96
2018-03-04T09:01:21.047Z,0.90
2018-03-04T09:02:26.620Z,0.83
2018-03-04T09:03:31.794Z,0.86
2018-03-04T09:04:36.946Z,0.81
2018-03-04T09:05:42.243Z,0.89
2018-03-04T09:06:47.432Z,0.90
2018-03-04T09:07:53.082Z,0.87
2018-03-04T09:08:58.603Z,0.93
2018-03-04T09:10:03.907Z,0.94
2018-03-04T09:11:09.281Z,0.89
2018-03-04T09:12:15.031Z,0.87
2018-03-04T09:13:20.418Z,0.90
2018-03-04T09:14:25.662Z,0.92
2018-03-04T09:15:32.322Z,0.93
2018-03-04T09:16:37.557Z,0.98
2018-03-04T09:17:42.859Z,1.09
2018-03-04T09:18:48.145Z,1.18
2018-03-04T09:19:53.168Z,1.24
2018-03-04T09:20:58.530Z,1.23
2018-03-04T09:22:04.166Z,1.24
2018-03-04T09:23:09.429Z,1.22
2018-03-04T09:24:14.750Z,1.27
2018-03-04T09:25:19.880Z,1.23
2018-03-04T09:26:25.082Z,1.25
2018-03-04T09:27:30.609Z,1.31
2018-03-04T09:28:35.805Z,1.38
2018-03-04T09:29:42.174Z,1.52
2018-03-04T09:30:47.430Z,1.62
2018-03-04T09:31:52.606Z,1.58
2018-03-04T09:32:57.896Z,1.54
2018-03-04T09:34:03.474Z,1.58
2018-03-04T09:35:08.791Z,1.63
2018-03-04T09:36:14.154Z,1.60
2018-03-04T09:37:19.375Z,1.53
2018-03-04T09:38:24.613Z,1.53
2018-03-04T09:39:29.941Z,1.52
2018-03-04T09:40:35.463Z,1.55
2018-03-04T09:41:40.815Z,1.62
2018-03-04T09:42:46.057Z,1.66
2018-03-04T09:43:51.245Z,1.66
2018-03-04T09:44:56.669Z,1.68
2018-03-04T09:46:01.819Z,1.76
2018-03-04T09:47:07.303Z,1.83
2018-03-04T09:48:12.542Z,1.95
2018-03-04T09:49:17.788Z,2.11
2018-03-04T09:50:23.076Z,2.15
2018-03-04T09:51:28.377Z,2.13
2018-03-04T09:52:33.882Z,2.24
2018-03-04T09:53:39.692Z,2.10
2018-03-04T09:54:45.408Z,2.04
2018-03-04T09:55:51.096Z,2.09
2018-03-04T09:56:56.239Z,2.12
2018-03-04T09:58:02.228Z,2.16
2018-03-04T09:59:07.364Z,2.11
2018-03-04T10:00:12.951Z,2.15
2018-03-04T10:01:18.236Z,2.26
2018-03-04T10:02:23.729Z,2.26
2018-03-04T10:03:29.853Z,2.33
2018-03-04T10:04:34.996Z,2.29
2018-03-04T10:05:40.179Z,2.28
2018-03-04T10:06:45.296Z,2.32
2018-03-04T10:07:50.417Z,2.34
2018-03-04T10:08:55.731Z,2.35
2018-03-04T10:10:01.755Z,2.30
2018-03-04T10:11:06.984Z,2.37
2018-03-04T10:12:12.448Z,2.63
2018-03-04T10:13:17.672Z,2.85
2018-03-04T10:14:23.048Z,2.94
2018-03-04T10:15:28.317Z,2.98
2018-03-04T10:16:33.631Z,2.77
2018-03-04T10:17:39.221Z,2.85
2018-03-04T10:18:44.361Z,2.95
2018-03-04T10:19:49.888Z,2.86
2018-03-04T10:20:55.038Z,3.03
2018-03-04T10:22:00.237Z,3.37
2018-03-04T10:23:05.499Z,3.50
2018-03-04T10:24:10.890Z,3.64
2018-03-04T10:25:16.048Z,3.74
2018-03-04T10:26:21.196Z,3.68
2018-03-04T10:27:26.711Z,4.50
2018-03-04T10:28:32.080Z,4.18
2018-03-04T10:29:37.410Z,3.64
2018-03-04T10:30:43.572Z,3.77
2018-03-04T10:31:48.827Z,4.34
2018-03-04T10:32:53.958Z,4.11
2018-03-04T10:33:59.126Z,4.48
2018-03-04T10:35:04.246Z,5.59
2018-03-04T10:36:09.684Z,5.73
2018-03-04T10:37:15.630Z,5.70
2018-03-04T10:38:20.669Z,6.48
2018-03-04T10:39:25.752Z,6.41
2018-03-04T10:40:30.883Z,6.60
2018-03-04T10:41:36.081Z,6.58
2018-03-04T10:42:41.248Z,6.79
2018-03-04T10:43:47.149Z,7.26
2018-03-04T10:44:52.280Z,7.58
2018-03-04T10:45:58.024Z,7.46
2018-03-04T10:47:03.169Z,7.01
2018-03-04T10:48:08.346Z,6.88
2018-03-04T10:49:13.352Z,7.57
2018-03-04T10:50:18.758Z,7.61
2018-03-04T10:51:23.667Z,7.30
2018-03-04T10:52:28.649Z,7.29
2018-03-04T10:53:33.847Z,7.04
2018-03-04T10:54:38.900Z,6.01
2018-03-04T10:55:43.998Z,5.53
2018-03-04T10:56:49.382Z,5.49
2018-03-04T10:57:54.528Z,5.36
2018-03-04T10:58:59.678Z,5.61
2018-03-04T11:00:04.913Z,5.60
2018-03-04T11:01:11.308Z,5.21
2018-03-04T11:02:18.369Z,5.77
2018-03-04T11:03:23.525Z,6.45
2018-03-04T11:04:28.769Z,6.27
2018-03-04T11:05:33.981Z,6.90
2018-03-04T11:06:39.589Z,7.87
2018-03-04T11:07:44.727Z,7.93
2018-03-04T11:08:50.361Z,7.36
2018-03-04T11:09:55.659Z,6.96
2018-03-04T11:11:01.658Z,6.79
2018-03-04T11:12:06.791Z,7.04
2018-03-04T11:13:12.185Z,6.81
2018-03-04T11:14:17.545Z,7.26
2018-03-04T11:15:23.130Z,7.27
2018-03-04T11:16:28.357Z,6.85
2018-03-04T11:17:33.528Z,7.10
2018-03-04T11:18:38.622Z,7.60
2018-03-04T11:19:43.832Z,7.30
2018-03-04T11:20:49.028Z,7.07
2018-03-04T11:21:54.613Z,6.88
2018-03-04T11:22:59.831Z,6.21
2018-03-04T11:24:05.063Z,6.20
2018-03-04T11:25:10.260Z,6.01
2018-03-04T11:26:15.470Z,6.33
2018-03-04T11:27:20.799Z,6.26
2018-03-04T11:28:26.522Z,6.34
2018-03-04T11:29:32.085Z,6.96
2018-03-04T11:30:38.209Z,6.60
2018-03-04T11:31:43.492Z,6.58
2018-03-04T11:32:48.854Z,6.91
2018-03-04T11:33:54.647Z,7.22
2018-03-04T11:35:01.576Z,7.02
2018-03-04T11:36:06.931Z,7.44
2018-03-04T11:37:12.620Z,7.62
2018-03-04T11:38:18.553Z,6.69
2018-03-04T11:39:24.807Z,7.35
2018-03-04T11:40:31.429Z,7.54
2018-03-04T11:41:37.587Z,7.93
2018-03-04T11:42:44.719Z,7.73
2018-03-04T11:43:53.217Z,7.56
2018-03-04T11:45:00.805Z,8.01
2018-03-04T11:46:08.358Z,7.97
2018-03-04T11:47:15.202Z,7.75
2018-03-04T11:48:21.029Z,7.27
2018-03-04T11:49:26.265Z,7.49
2018-03-04T11:50:32.208Z,7.45
2018-03-04T11:51:37.647Z,7.58
2018-03-04T11:52:43.222Z,7.62
2018-03-04T11:53:48.586Z,7.03
2018-03-04T11:54:54.433Z,7.57
2018-03-04T11:55:59.719Z,7.22
2018-03-04T11:57:05.326Z,6.92
2018-03-04T11:58:10.892Z,7.27
2018-03-04T11:59:16.278Z,7.26
2018-03-04T12:00:22.842Z,7.18
2018-03-04T12:01:28.786Z,7.52
2018-03-04T12:02:34.955Z,7.36
2018-03-04T12:03:40.425Z,7.68
2018-03-04T12:04:45.756Z,7.04
2018-03-04T12:05:52.282Z,6.37
2018-03-04T12:06:58.182Z,6.54
2018-03-04T12:08:03.975Z,6.55
2018-03-04T12:09:09.555Z,5.99
2018-03-04T12:10:14.715Z,6.36
2018-03-04T12:11:20.324Z,6.13
2018-03-04T12:12:25.489Z,6.15
2018-03-04T12:13:30.941Z,6.44
2018-03-04T12:14:36.915Z,6.49
2018-03-04T12:15:42.517Z,6.06
2018-03-04T12:16:49.084Z,6.29
2018-03-04T12:17:54.171Z,5.86
2018-03-04T12:18:59.730Z,5.75
2018-03-04T12:20:05.164Z,6.10
2018-03-04T12:21:10.340Z,6.31
2018-03-04T12:22:15.912Z,6.12
2018-03-04T12:23:21.417Z,5.78
2018-03-04T12:24:26.684Z,6.26
2018-03-04T12:25:32.142Z,6.64
2018-03-04T12:26:38.023Z,6.73
2018-03-04T12:27:43.285Z,6.52
2018-03-04T12:28:48.424Z,6.88
2018-03-04T12:29:54.615Z,7.34
2018-03-04T12:31:00.801Z,7.58
2018-03-04T12:32:06.986Z,6.69
2018-03-04T12:33:12.872Z,6.24
2018-03-04T12:34:18.724Z,6.38
2018-03-04T12:35:26.263Z,6.57
2018-03-04T12:36:34.533Z,6.20
2018-03-04T12:37:40.020Z,6.18
2018-03-04T12:38:46.276Z,6.45
2018-03-04T12:39:53.464Z,5.82
2018-03-04T12:40:58.718Z,5.45
2018-03-04T12:42:03.966Z,5.28
2018-03-04T12:43:10.917Z,6.10
2018-03-04T12:44:16.384Z,6.83
2018-03-04T12:45:21.824Z,7.00
2018-03-04T12:46:27.817Z,7.08
2018-03-04T12:47:33.711Z,7.44
2018-03-04T12:48:39.602Z,7.14
2018-03-04T12:49:44.934Z,7.62
2018-03-04T12:50:50.428Z,6.94
2018-03-04T12:51:56.474Z,6.19
2018-03-04T12:53:01.831Z,6.26
2018-03-04T12:54:07.375Z,6.48
2018-03-04T12:55:13.111Z,6.48
2018-03-04T12:56:18.589Z,6.82
2018-03-04T12:57:24.292Z,6.52
2018-03-04T12:58:31.409Z,6.51
2018-03-04T12:59:38.148Z,6.57
2018-03-04T13:00:44.104Z,6.28
2018-03-04T13:01:49.837Z,5.79
2018-03-04T13:02:55.990Z,5.44
2018-03-04T13:04:02.241Z,5.83
2018-03-04T13:05:09.178Z,5.80
2018-03-04T13:06:14.978Z,5.79
2018-03-04T13:07:20.251Z,5.77
2018-03-04T13:08:25.815Z,5.67
2018-03-04T13:09:31.618Z,5.91
2018-03-04T13:10:37.631Z,5.71
2018-03-04T13:11:43.094Z,5.36
2018-03-04T13:12:48.405Z,5.19
2018-03-04T13:13:54.053Z,5.01
2018-03-04T13:15:00.074Z,5.46
2018-03-04T13:16:05.749Z,5.86
2018-03-04T13:17:11.882Z,6.41
2018-03-04T13:18:17.544Z,5.66
2018-03-04T13:19:22.834Z,5.64
2018-03-04T13:20:28.183Z,5.69
2018-03-04T13:21:33.519Z,5.88
2018-03-04T13:22:38.860Z,6.75
2018-03-04T13:23:44.561Z,6.32
2018-03-04T13:24:50.034Z,6.27
2018-03-04T13:25:55.485Z,6.54
2018-03-04T13:27:01.314Z,6.45
2018-03-04T13:28:06.695Z,6.30
2018-03-04T13:29:12.678Z,6.73
2018-03-04T13:30:18.491Z,6.73
2018-03-04T13:31:24.322Z,7.04
2018-03-04T13:32:30.331Z,7.15
2018-03-04T13:33:36.977Z,7.11
2018-03-04T13:34:42.355Z,7.29
2018-03-04T13:35:47.757Z,7.47
2018-03-04T13:36:53.441Z,7.72
2018-03-04T13:37:58.780Z,8.16
2018-03-04T13:39:04.282Z,8.26
2018-03-04T13:40:10.101Z,8.51
2018-03-04T13:41:15.391Z,8.39
2018-03-04T13:42:21.238Z,8.32
2018-03-04T13:43:26.806Z,8.35
2018-03-04T13:44:32.330Z,8.13
2018-03-04T13:45:37.904Z,7.83
2018-03-04T13:46:43.524Z,8.28
2018-03-04T13:47:49.489Z,8.46
2018-03-04T13:48:56.851Z,8.28
2018-03-04T13:50:02.066Z,7.92
2018-03-04T13:51:07.407Z,7.97
2018-03-04T13:52:12.630Z,7.90
2018-03-04T13:53:18.241Z,7.88
2018-03-04T13:54:23.772Z,7.68
2018-03-04T13:55:29.335Z,7.63
2018-03-04T13:56:34.678Z,7.72
2018-03-04T13:57:40.008Z,7.40
2018-03-04T13:58:45.780Z,7.65
2018-03-04T13:59:51.329Z,7.12
2018-03-04T14:00:57.055Z,7.09
2018-03-04T14:02:03.273Z,6.85
2018-03-04T14:03:08.698Z,6.95
2018-03-04T14:04:14.081Z,7.04
2018-03-04T14:05:21.098Z,6.80
2018-03-04T14:06:29.380Z,6.68
2018-03-04T14:07:36.468Z,6.69
2018-03-04T14:08:43.468Z,6.63
2018-03-04T14:09:49.142Z,6.84
2018-03-04T14:10:54.359Z,6.89
2018-03-04T14:11:59.567Z,6.94
2018-03-04T14:13:05.112Z,7.06
2018-03-04T14:14:10.493Z,7.02
2018-03-04T14:15:15.529Z,6.96
2018-03-04T14:16:20.721Z,6.88
2018-03-04T14:17:25.875Z,6.76
2018-03-04T14:18:31.170Z,6.87
2018-03-04T14:19:37.051Z,6.98
2018-03-04T14:20:43.036Z,6.62
2018-03-04T14:21:49.341Z,6.25
2018-03-04T14:22:54.863Z,6.60
2018-03-04T14:24:00.281Z,6.74
2018-03-04T14:25:05.605Z,6.69
2018-03-04T14:26:11.244Z,6.68